createdAt,value
2018-10-18T00:04:35.434Z,15.93
2018-10-18T00:09:20.002Z,15.96
2018-10-18T00:14:02.997Z,15.94
2018-10-18T00:18:46.345Z,15.82
2018-10-18T00:23:29.258Z,15.85
2018-10-18T00:28:12.125Z,15.79
2018-10-18T00:32:55.122Z,16.02
2018-10-18T00:37:38.447Z,15.85
2018-10-18T00:42:21.378Z,15.63
2018-10-18T00:47:04.405Z,15.98
2018-10-18T00:51:48.461Z,16.38
2018-10-18T00:56:31.354Z,15.77
2018-10-18T01:01:15.266Z,15.82
2018-10-18T01:05:58.151Z,16.05
2018-10-18T01:10:42.029Z,16.18
2018-10-18T01:15:24.895Z,15.11
2018-10-18T01:20:09.935Z,15.29
2018-10-18T01:24:52.783Z,15.03
2018-10-18T01:29:35.836Z,15.02
2018-10-18T01:34:18.681Z,15.09
2018-10-18T01:39:02.906Z,15.11
2018-10-18T01:43:45.782Z,15.05
2018-10-18T01:48:28.743Z,15.20
2018-10-18T01:53:11.785Z,15.08
2018-10-18T01:57:54.667Z,15.01
2018-10-18T02:02:39.747Z,15.10
2018-10-18T02:07:22.636Z,15.22
2018-10-18T02:12:07.831Z,15.41
2018-10-18T02:16:50.697Z,15.55
2018-10-18T02:21:34.772Z,15.80
2018-10-18T02:26:17.625Z,15.84
2018-10-18T02:31:01.511Z,15.73
2018-10-18T02:35:44.341Z,15.82
2018-10-18T02:40:28.381Z,15.51
2018-10-18T02:45:11.233Z,15.90
2018-10-18T02:49:54.342Z,15.82
2018-10-18T02:54:37.180Z,15.62
2018-10-18T02:59:20.205Z,15.78
2018-10-18T03:04:03.204Z,15.57
2018-10-18T03:08:46.151Z,15.70
2018-10-18T03:13:29.060Z,15.76
2018-10-18T03:18:11.998Z,15.51
2018-10-18T03:22:55.082Z,15.69
2018-10-18T03:27:38.439Z,15.69
2018-10-18T03:32:23.809Z,15.92
2018-10-18T03:37:06.711Z,15.73
2018-10-18T03:41:50.650Z,15.90
2018-10-18T03:46:33.731Z,15.35
2018-10-18T03:51:17.713Z,15.73
2018-10-18T03:56:00.673Z,15.52
2018-10-18T04:00:44.779Z,15.62
2018-10-18T04:05:27.626Z,15.79
2018-10-18T04:10:10.594Z,15.76
2018-10-18T04:14:53.490Z,15.83
2018-10-18T04:19:36.561Z,15.61
2018-10-18T04:24:19.515Z,15.32
2018-10-18T04:29:02.621Z,15.54
2018-10-18T04:33:45.528Z,15.79
2018-10-18T04:38:28.637Z,15.60
2018-10-18T04:43:16.180Z,15.75
2018-10-18T04:47:59.221Z,15.82
2018-10-18T04:52:42.123Z,14.99
2018-10-18T04:57:25.053Z,15.26
2018-10-18T05:02:09.287Z,15.43
2018-10-18T05:06:52.228Z,15.69
2018-10-18T05:11:36.205Z,15.45
2018-10-18T05:16:19.102Z,15.16
2018-10-18T05:21:02.222Z,15.98
2018-10-18T05:25:46.155Z,15.37
2018-10-18T05:30:30.033Z,15.60
2018-10-18T05:35:12.910Z,15.78
2018-10-18T05:39:55.830Z,15.70
2018-10-18T05:44:38.742Z,15.99
2018-10-18T05:49:23.687Z,15.85
2018-10-18T05:54:07.940Z,16.14
2018-10-18T05:58:50.991Z,16.25
2018-10-18T06:03:33.865Z,16.37
2018-10-18T06:08:17.122Z,16.33
2018-10-18T06:13:00.078Z,16.50
2018-10-18T06:17:43.050Z,16.62
2018-10-18T06:22:27.141Z,16.73
2018-10-18T06:27:10.021Z,16.63
2018-10-18T06:31:54.963Z,16.47
2018-10-18T06:36:37.841Z,16.77
2018-10-18T06:41:24.058Z,16.37
2018-10-18T06:46:10.165Z,15.93
2018-10-18T06:50:54.179Z,16.53
2018-10-18T06:55:37.130Z,16.71
2018-10-18T07:00:23.516Z,17.02
2018-10-18T07:05:07.855Z,17.13
2018-10-18T07:09:54.738Z,17.10
2018-10-18T07:14:37.632Z,17.20
2018-10-18T07:19:21.679Z,17.17
2018-10-18T07:24:04.643Z,17.27
2018-10-18T07:28:49.494Z,17.50
2018-10-18T07:33:32.406Z,17.60
2018-10-18T07:38:16.248Z,17.54
2018-10-18T07:42:59.132Z,17.45
2018-10-18T07:47:45.453Z,16.72
2018-10-18T07:52:28.327Z,17.11
2018-10-18T07:57:11.187Z,17.18
2018-10-18T08:01:54.373Z,17.03
2018-10-18T08:06:37.248Z,16.90
2018-10-18T08:11:23.410Z,17.19
2018-10-18T08:16:06.368Z,17.51
2018-10-18T08:20:50.434Z,17.78
2018-10-18T08:25:33.345Z,17.99
2018-10-18T08:30:21.920Z,18.19
2018-10-18T08:35:05.645Z,18.24
2018-10-18T08:39:49.657Z,18.26
2018-10-18T08:44:32.641Z,18.17
2018-10-18T08:49:16.652Z,18.15
2018-10-18T08:53:59.574Z,18.22
2018-10-18T08:58:43.521Z,18.60
2018-10-18T09:03:26.422Z,18.97
2018-10-18T09:08:09.574Z,18.71
2018-10-18T09:12:53.328Z,19.46
2018-10-18T09:17:37.749Z,19.40
2018-10-18T09:22:20.641Z,20.34
2018-10-18T09:27:03.588Z,20.26
2018-10-18T09:31:47.524Z,20.88
2018-10-18T09:36:30.400Z,20.80
2018-10-18T09:41:14.322Z,20.56
2018-10-18T09:45:57.296Z,20.97
2018-10-18T09:50:43.914Z,20.90
2018-10-18T09:55:26.826Z,20.55
2018-10-18T10:00:18.770Z,20.26
2018-10-18T10:05:01.628Z,19.54
2018-10-18T10:09:47.981Z,19.52
2018-10-18T10:14:30.885Z,19.78
2018-10-18T10:19:15.880Z,19.56
2018-10-18T10:23:58.690Z,19.64
2018-10-18T10:28:46.154Z,19.56
2018-10-18T10:33:29.124Z,19.34
2018-10-18T10:38:14.022Z,19.43
2018-10-18T10:42:56.966Z,19.43
2018-10-18T10:47:42.662Z,19.42
2018-10-18T10:52:25.589Z,19.33
2018-10-18T10:57:08.500Z,19.33
2018-10-18T11:01:57.237Z,19.31
2018-10-18T11:06:42.403Z,19.34
2018-10-18T11:11:27.521Z,19.28
2018-10-18T11:16:11.229Z,19.11
2018-10-18T11:20:56.409Z,19.31
2018-10-18T11:25:39.297Z,19.19
2018-10-18T11:30:23.507Z,19.24
2018-10-18T11:35:06.410Z,19.26
2018-10-18T11:39:51.524Z,19.40
2018-10-18T11:44:40.371Z,19.21
2018-10-18T11:49:25.015Z,19.19
2018-10-18T11:54:08.946Z,19.31
2018-10-18T11:58:56.831Z,19.14
2018-10-18T12:03:42.197Z,19.23
2018-10-18T12:08:27.975Z,19.21
2018-10-18T12:13:12.664Z,19.01
2018-10-18T12:17:58.254Z,19.10
2018-10-18T12:22:41.191Z,19.16
2018-10-18T12:27:25.166Z,19.20
2018-10-18T12:32:08.142Z,19.25
2018-10-18T12:36:51.001Z,19.22
2018-10-18T12:41:35.021Z,19.47
2018-10-18T12:46:17.768Z,19.70
2018-10-18T12:51:02.846Z,19.37
2018-10-18T12:55:45.766Z,19.14
2018-10-18T13:00:30.676Z,19.39
2018-10-18T13:05:13.661Z,19.70
2018-10-18T13:09:57.688Z,19.74
2018-10-18T13:14:40.617Z,19.66
2018-10-18T13:19:23.843Z,19.74
2018-10-18T13:24:06.754Z,20.10
2018-10-18T13:28:49.759Z,19.88
2018-10-18T13:33:32.631Z,19.75
2018-10-18T13:38:15.984Z,20.04
2018-10-18T13:42:59.697Z,19.96
2018-10-18T13:47:42.811Z,19.84
2018-10-18T13:53:55.187Z,19.76
2018-10-18T13:58:39.243Z,19.71
2018-10-18T14:03:22.232Z,19.72
2018-10-18T14:08:06.300Z,19.62
2018-10-18T14:12:50.558Z,19.72
2018-10-18T14:17:33.675Z,19.69
2018-10-18T14:22:16.485Z,19.66
2018-10-18T14:27:00.597Z,19.52
2018-10-18T14:31:43.490Z,19.34
2018-10-18T14:36:26.403Z,19.27
2018-10-18T14:41:10.556Z,19.39
2018-10-18T14:45:53.439Z,19.46
2018-10-18T14:50:37.496Z,19.25
2018-10-18T14:55:20.269Z,19.20
2018-10-18T15:00:03.783Z,19.56
2018-10-18T15:04:49.846Z,19.53
2018-10-18T15:09:33.653Z,19.53
2018-10-18T15:14:17.560Z,19.38
2018-10-18T15:19:00.483Z,19.33
2018-10-18T15:23:43.344Z,18.74
2018-10-18T15:28:26.273Z,18.42
2018-10-18T15:33:09.218Z,18.40
2018-10-18T15:37:53.401Z,18.29
2018-10-18T15:42:36.270Z,18.10
2018-10-18T15:47:21.348Z,18.01
2018-10-18T15:52:04.230Z,17.97
2018-10-18T15:56:47.199Z,17.81
2018-10-18T16:01:30.105Z,18.67
2018-10-18T16:06:13.100Z,18.78
2018-10-18T16:10:57.861Z,18.49
2018-10-18T16:15:40.879Z,17.96
2018-10-18T16:20:25.574Z,18.08
2018-10-18T16:25:12.898Z,18.25
2018-10-18T16:29:56.772Z,18.52
2018-10-18T16:34:40.307Z,18.19
2018-10-18T16:39:23.388Z,17.66
2018-10-18T16:44:07.191Z,18.32
2018-10-18T16:48:50.135Z,18.21
2018-10-18T16:53:34.017Z,17.73
2018-10-18T16:58:16.982Z,17.89
2018-10-18T17:02:59.861Z,17.78
2018-10-18T17:07:43.189Z,18.16
2018-10-18T17:12:26.145Z,16.95
2018-10-18T17:17:09.311Z,16.91
2018-10-18T17:21:53.242Z,17.08
2018-10-18T17:26:36.731Z,17.12
2018-10-18T17:31:19.583Z,17.73
2018-10-18T17:36:02.948Z,17.48
2018-10-18T17:40:47.080Z,17.72
2018-10-18T17:45:29.950Z,17.71
2018-10-18T17:50:13.088Z,17.50
2018-10-18T17:54:56.088Z,17.27
2018-10-18T17:59:40.100Z,17.49
2018-10-18T18:04:23.287Z,17.51
2018-10-18T18:09:06.765Z,17.39
2018-10-18T18:13:49.741Z,18.07
2018-10-18T18:18:34.047Z,18.18
2018-10-18T18:23:16.970Z,18.12
2018-10-18T18:28:00.914Z,17.81
2018-10-18T18:32:44.392Z,17.55
2018-10-18T18:37:27.514Z,17.77
2018-10-18T18:42:10.513Z,17.49
2018-10-18T18:46:54.585Z,17.36
2018-10-18T18:51:37.510Z,17.23
2018-10-18T18:56:20.811Z,17.60
2018-10-18T19:01:16.922Z,17.85
2018-10-18T19:06:09.078Z,18.26
2018-10-18T19:10:53.426Z,17.69
2018-10-18T19:15:37.453Z,17.47
2018-10-18T19:20:21.763Z,17.64
2018-10-18T19:25:06.408Z,17.54
2018-10-18T19:29:50.432Z,17.28
2018-10-18T19:34:33.371Z,18.08
2018-10-18T19:39:18.368Z,18.24
2018-10-18T19:44:01.324Z,18.25
2018-10-18T19:48:46.868Z,18.10
2018-10-18T19:53:29.796Z,18.33
2018-10-18T19:58:12.859Z,18.34
2018-10-18T20:02:57.145Z,17.96
2018-10-18T20:07:42.229Z,17.17
2018-10-18T20:12:25.083Z,17.08
2018-10-18T20:17:09.945Z,17.40
2018-10-18T20:21:52.835Z,17.76
2018-10-18T20:26:36.799Z,17.19
2018-10-18T20:31:19.675Z,17.27
2018-10-18T20:36:04.267Z,17.33
2018-10-18T20:40:47.167Z,18.00
2018-10-18T20:45:33.673Z,18.10
2018-10-18T20:50:17.534Z,17.96
2018-10-18T20:55:00.450Z,17.38
2018-10-18T20:59:43.322Z,17.13
2018-10-18T21:04:26.178Z,17.89
2018-10-18T21:09:10.431Z,17.26
2018-10-18T21:13:53.227Z,16.87
2018-10-18T21:18:36.493Z,16.84
2018-10-18T21:23:20.447Z,17.64
2018-10-18T21:28:03.459Z,17.60
2018-10-18T21:32:46.365Z,17.80
2018-10-18T21:37:30.544Z,17.16
2018-10-18T21:42:13.378Z,16.98
2018-10-18T21:46:59.217Z,17.32
2018-10-18T21:51:42.070Z,16.83
2018-10-18T21:56:25.099Z,16.82
2018-10-18T22:01:09.110Z,16.67
2018-10-18T22:05:52.150Z,17.35
2018-10-18T22:10:35.006Z,16.66
2018-10-18T22:15:17.874Z,16.31
2018-10-18T22:20:05.390Z,16.87
2018-10-18T22:24:48.322Z,17.25
2018-10-18T22:29:32.449Z,17.24
2018-10-18T22:34:15.345Z,17.29
2018-10-18T22:38:58.598Z,16.74
2018-10-18T22:43:41.501Z,17.18
2018-10-18T22:48:24.449Z,17.37
2018-10-18T22:53:07.331Z,16.81
2018-10-18T22:57:50.878Z,16.51
2018-10-18T23:02:34.277Z,16.35
2018-10-18T23:07:17.321Z,16.82
2018-10-18T23:12:00.181Z,16.49
2018-10-18T23:16:45.256Z,16.78
2018-10-18T23:21:28.169Z,16.20
2018-10-18T23:26:11.086Z,16.34
2018-10-18T23:30:54.033Z,16.26
2018-10-18T23:35:37.158Z,16.56
2018-10-18T23:40:20.046Z,16.42
2018-10-18T23:45:03.028Z,16.57
2018-10-18T23:49:46.354Z,16.33
2018-10-18T23:54:29.172Z,16.10
2018-10-18T23:59:12.148Z,16.34
